Weather at Meligan Airport

Public forecast

Using degrees Celsius for public forecast. Weather courtesy of forecast.io.

Closest aviation weather report (METAR) to Meligan Airport

Closest report is Labuan Airport, 45.8 nm (84.9 km) NW. Retrieved 2022/08/09 07:00 UTC (48 minutes ago):

WBKL 090700Z 05004KT 330V140 9999 FEW016 31/26 Q1006

Closest aviation forecast (TAF) to Meligan Airport

Closest forecast is Labuan Airport, 45.8 nm (84.9 km) NW. Retrieved 2022/08/09 06:00 UTC (2 hours ago):

TAF WBKL 090500Z 0906/1006 VRB03KT 9999 FEW015